sensor_id;sensor_type;location;lat;lon;timestamp;temperature;humidity
52675;DHT22;38569;52.722;6.440;2023-03-16T00:00:42;4.40;99.90
52675;DHT22;38569;52.722;6.440;2023-03-16T00:03:09;4.40;99.90
52675;DHT22;38569;52.722;6.440;2023-03-16T00:05:36;4.50;99.90
52675;DHT22;38569;52.722;6.440;2023-03-16T00:08:02;4.50;99.90
52675;DHT22;38569;52.722;6.440;2023-03-16T00:10:27;4.60;99.90
52675;DHT22;38569;52.722;6.440;2023-03-16T00:12:54;4.60;99.90
52675;DHT22;38569;52.722;6.440;2023-03-16T00:15:21;4.70;99.90
52675;DHT22;38569;52.722;6.440;2023-03-16T00:17:47;4.70;99.90
52675;DHT22;38569;52.722;6.440;2023-03-16T00:20:17;4.70;99.90
52675;DHT22;38569;52.722;6.440;2023-03-16T00:22:44;4.70;99.90
52675;DHT22;38569;52.722;6.440;2023-03-16T00:25:11;4.70;99.90
52675;DHT22;38569;52.722;6.440;2023-03-16T00:27:39;4.70;99.90
52675;DHT22;38569;52.722;6.440;2023-03-16T00:30:05;4.80;99.90
52675;DHT22;38569;52.722;6.440;2023-03-16T00:32:32;4.80;99.90
52675;DHT22;38569;52.722;6.440;2023-03-16T00:34:59;4.80;99.90
52675;DHT22;38569;52.722;6.440;2023-03-16T00:37:26;4.90;99.90
52675;DHT22;38569;52.722;6.440;2023-03-16T00:39:52;4.90;99.90
52675;DHT22;38569;52.722;6.440;2023-03-16T00:42:21;4.90;99.90
52675;DHT22;38569;52.722;6.440;2023-03-16T00:44:52;4.80;99.90
52675;DHT22;38569;52.722;6.440;2023-03-16T00:47:25;4.80;99.90
52675;DHT22;38569;52.722;6.440;2023-03-16T00:49:53;4.80;99.90
52675;DHT22;38569;52.722;6.440;2023-03-16T00:52:19;4.80;99.90
52675;DHT22;38569;52.722;6.440;2023-03-16T00:54:47;4.80;99.90
52675;DHT22;38569;52.722;6.440;2023-03-16T00:57:15;4.80;99.90
52675;DHT22;38569;52.722;6.440;2023-03-16T00:59:43;4.80;99.90
52675;DHT22;38569;52.722;6.440;2023-03-16T01:02:10;4.80;99.90
52675;DHT22;38569;52.722;6.440;2023-03-16T01:04:37;4.70;99.90
52675;DHT22;38569;52.722;6.440;2023-03-16T01:07:05;4.70;99.90
52675;DHT22;38569;52.722;6.440;2023-03-16T01:09:31;4.70;99.90
52675;DHT22;38569;52.722;6.440;2023-03-16T01:12:10;4.60;99.90
52675;DHT22;38569;52.722;6.440;2023-03-16T01:14:37;4.60;99.90
52675;DHT22;38569;52.722;6.440;2023-03-16T01:17:04;4.50;99.90
52675;DHT22;38569;52.722;6.440;2023-03-16T01:19:33;4.50;99.90
52675;DHT22;38569;52.722;6.440;2023-03-16T01:22:01;4.40;99.90
52675;DHT22;38569;52.722;6.440;2023-03-16T01:24:27;4.40;99.90
52675;DHT22;38569;52.722;6.440;2023-03-16T01:26:53;4.40;99.90
52675;DHT22;38569;52.722;6.440;2023-03-16T01:29:18;4.40;99.90
52675;DHT22;38569;52.722;6.440;2023-03-16T01:31:44;4.40;99.90
52675;DHT22;38569;52.722;6.440;2023-03-16T01:34:10;4.30;99.90
52675;DHT22;38569;52.722;6.440;2023-03-16T01:36:43;4.40;99.90
52675;DHT22;38569;52.722;6.440;2023-03-16T01:39:13;4.30;99.90
52675;DHT22;38569;52.722;6.440;2023-03-16T01:41:40;4.30;99.90
52675;DHT22;38569;52.722;6.440;2023-03-16T01:44:09;4.30;99.90
52675;DHT22;38569;52.722;6.440;2023-03-16T01:46:37;4.30;99.90
52675;DHT22;38569;52.722;6.440;2023-03-16T01:49:24;4.30;99.90
52675;DHT22;38569;52.722;6.440;2023-03-16T01:51:55;4.30;99.90
52675;DHT22;38569;52.722;6.440;2023-03-16T01:54:30;4.30;99.90
52675;DHT22;38569;52.722;6.440;2023-03-16T01:57:23;4.30;99.90
52675;DHT22;38569;52.722;6.440;2023-03-16T02:00:04;4.30;99.90
52675;DHT22;38569;52.722;6.440;2023-03-16T02:02:34;4.30;99.90
52675;DHT22;38569;52.722;6.440;2023-03-16T02:05:11;4.40;99.90
52675;DHT22;38569;52.722;6.440;2023-03-16T02:07:46;4.40;99.90
52675;DHT22;38569;52.722;6.440;2023-03-16T02:10:18;4.40;99.90
52675;DHT22;38569;52.722;6.440;2023-03-16T02:12:45;4.40;99.90
52675;DHT22;38569;52.722;6.440;2023-03-16T02:15:12;4.40;99.90
52675;DHT22;38569;52.722;6.440;2023-03-16T02:17:42;4.40;99.90
52675;DHT22;38569;52.722;6.440;2023-03-16T02:23:23;4.40;99.90
52675;DHT22;38569;52.722;6.440;2023-03-16T02:31:38;4.50;99.90
52675;DHT22;38569;52.722;6.440;2023-03-16T02:34:04;4.60;99.90
52675;DHT22;38569;52.722;6.440;2023-03-16T02:36:31;4.60;99.90
52675;DHT22;38569;52.722;6.440;2023-03-16T02:38:58;4.60;99.90
52675;DHT22;38569;52.722;6.440;2023-03-16T02:41:23;4.70;99.90
52675;DHT22;38569;52.722;6.440;2023-03-16T02:44:12;4.70;99.90
52675;DHT22;38569;52.722;6.440;2023-03-16T02:46:41;4.70;99.90
52675;DHT22;38569;52.722;6.440;2023-03-16T02:49:14;4.70;99.90
52675;DHT22;38569;52.722;6.440;2023-03-16T02:51:44;4.70;99.90
52675;DHT22;38569;52.722;6.440;2023-03-16T02:54:10;4.70;99.90
52675;DHT22;38569;52.722;6.440;2023-03-16T02:56:35;4.70;99.90
52675;DHT22;38569;52.722;6.440;2023-03-16T02:59:01;4.70;99.90
52675;DHT22;38569;52.722;6.440;2023-03-16T03:01:27;4.80;99.90
52675;DHT22;38569;52.722;6.440;2023-03-16T03:03:52;4.80;99.90
52675;DHT22;38569;52.722;6.440;2023-03-16T03:06:18;4.70;99.90
52675;DHT22;38569;52.722;6.440;2023-03-16T03:08:44;4.80;99.90
52675;DHT22;38569;52.722;6.440;2023-03-16T03:11:10;4.80;99.90
52675;DHT22;38569;52.722;6.440;2023-03-16T03:13:35;4.90;99.90
52675;DHT22;38569;52.722;6.440;2023-03-16T03:16:03;4.80;99.90
52675;DHT22;38569;52.722;6.440;2023-03-16T03:18:29;4.80;99.90
52675;DHT22;38569;52.722;6.440;2023-03-16T03:20:55;4.80;99.90
52675;DHT22;38569;52.722;6.440;2023-03-16T03:23:20;4.80;99.90
52675;DHT22;38569;52.722;6.440;2023-03-16T03:25:46;4.90;99.90
52675;DHT22;38569;52.722;6.440;2023-03-16T03:28:12;4.80;99.90
52675;DHT22;38569;52.722;6.440;2023-03-16T03:30:39;4.90;99.90
52675;DHT22;38569;52.722;6.440;2023-03-16T03:33:05;4.80;99.90
52675;DHT22;38569;52.722;6.440;2023-03-16T03:35:30;4.90;99.90
52675;DHT22;38569;52.722;6.440;2023-03-16T03:37:56;4.90;99.90
52675;DHT22;38569;52.722;6.440;2023-03-16T03:40:22;4.90;99.90
52675;DHT22;38569;52.722;6.440;2023-03-16T03:42:48;4.90;99.90
52675;DHT22;38569;52.722;6.440;2023-03-16T03:45:14;4.90;99.90
52675;DHT22;38569;52.722;6.440;2023-03-16T03:47:41;4.90;99.90
52675;DHT22;38569;52.722;6.440;2023-03-16T03:50:09;4.90;99.90
52675;DHT22;38569;52.722;6.440;2023-03-16T03:52:35;4.90;99.90
52675;DHT22;38569;52.722;6.440;2023-03-16T03:55:01;4.90;99.90
52675;DHT22;38569;52.722;6.440;2023-03-16T03:57:26;4.90;99.90
52675;DHT22;38569;52.722;6.440;2023-03-16T03:59:52;4.90;99.90
52675;DHT22;38569;52.722;6.440;2023-03-16T04:02:18;4.90;99.90
52675;DHT22;38569;52.722;6.440;2023-03-16T04:04:43;4.90;99.90
52675;DHT22;38569;52.722;6.440;2023-03-16T04:07:09;4.90;99.90
52675;DHT22;38569;52.722;6.440;2023-03-16T04:09:35;4.90;99.90
52675;DHT22;38569;52.722;6.440;2023-03-16T04:12:03;4.90;99.90
52675;DHT22;38569;52.722;6.440;2023-03-16T04:14:29;4.90;99.90
52675;DHT22;38569;52.722;6.440;2023-03-16T04:16:55;4.90;99.90
52675;DHT22;38569;52.722;6.440;2023-03-16T04:19:22;4.90;99.90
52675;DHT22;38569;52.722;6.440;2023-03-16T04:21:49;4.90;99.90
52675;DHT22;38569;52.722;6.440;2023-03-16T04:24:15;4.90;99.90
52675;DHT22;38569;52.722;6.440;2023-03-16T04:26:41;4.80;99.90
52675;DHT22;38569;52.722;6.440;2023-03-16T04:29:13;4.80;99.90
52675;DHT22;38569;52.722;6.440;2023-03-16T04:31:43;4.80;99.90
52675;DHT22;38569;52.722;6.440;2023-03-16T04:34:09;4.80;99.90
52675;DHT22;38569;52.722;6.440;2023-03-16T04:36:36;4.90;99.90
52675;DHT22;38569;52.722;6.440;2023-03-16T04:39:03;4.80;99.90
52675;DHT22;38569;52.722;6.440;2023-03-16T04:41:29;4.90;99.90
52675;DHT22;38569;52.722;6.440;2023-03-16T04:43:55;4.80;99.90
52675;DHT22;38569;52.722;6.440;2023-03-16T04:46:23;4.90;99.90
52675;DHT22;38569;52.722;6.440;2023-03-16T04:48:49;4.90;99.90
52675;DHT22;38569;52.722;6.440;2023-03-16T04:51:14;4.90;99.90
52675;DHT22;38569;52.722;6.440;2023-03-16T04:53:40;4.90;99.90
52675;DHT22;38569;52.722;6.440;2023-03-16T04:56:06;4.90;99.90
52675;DHT22;38569;52.722;6.440;2023-03-16T04:58:32;4.90;99.90
52675;DHT22;38569;52.722;6.440;2023-03-16T05:00:58;4.90;99.90
52675;DHT22;38569;52.722;6.440;2023-03-16T05:03:24;4.90;99.90
52675;DHT22;38569;52.722;6.440;2023-03-16T05:05:50;4.90;99.90
52675;DHT22;38569;52.722;6.440;2023-03-16T05:08:16;4.90;99.90
52675;DHT22;38569;52.722;6.440;2023-03-16T05:10:41;4.90;99.90
52675;DHT22;38569;52.722;6.440;2023-03-16T05:13:09;4.90;99.90
52675;DHT22;38569;52.722;6.440;2023-03-16T05:15:35;4.90;99.90
52675;DHT22;38569;52.722;6.440;2023-03-16T05:18:00;4.90;99.90
52675;DHT22;38569;52.722;6.440;2023-03-16T05:20:26;4.90;99.90
52675;DHT22;38569;52.722;6.440;2023-03-16T05:22:52;4.90;99.90
52675;DHT22;38569;52.722;6.440;2023-03-16T05:25:19;4.90;99.90
52675;DHT22;38569;52.722;6.440;2023-03-16T05:27:47;4.90;99.90
52675;DHT22;38569;52.722;6.440;2023-03-16T05:30:14;4.90;99.90
52675;DHT22;38569;52.722;6.440;2023-03-16T05:32:41;4.90;99.90
52675;DHT22;38569;52.722;6.440;2023-03-16T05:35:07;4.90;99.90
52675;DHT22;38569;52.722;6.440;2023-03-16T05:37:34;4.90;99.90
52675;DHT22;38569;52.722;6.440;2023-03-16T05:40:04;4.90;99.90
52675;DHT22;38569;52.722;6.440;2023-03-16T05:42:42;4.90;99.90
52675;DHT22;38569;52.722;6.440;2023-03-16T05:45:09;4.90;99.90
52675;DHT22;38569;52.722;6.440;2023-03-16T05:47:34;4.90;99.90
52675;DHT22;38569;52.722;6.440;2023-03-16T05:50:03;4.80;99.90
52675;DHT22;38569;52.722;6.440;2023-03-16T05:52:30;4.80;99.90
52675;DHT22;38569;52.722;6.440;2023-03-16T05:54:55;4.70;99.90
52675;DHT22;38569;52.722;6.440;2023-03-16T05:57:21;4.80;99.90
52675;DHT22;38569;52.722;6.440;2023-03-16T05:59:47;4.80;99.90
52675;DHT22;38569;52.722;6.440;2023-03-16T06:02:13;4.80;99.90
52675;DHT22;38569;52.722;6.440;2023-03-16T06:04:39;4.70;99.90
52675;DHT22;38569;52.722;6.440;2023-03-16T06:07:04;4.80;99.90
52675;DHT22;38569;52.722;6.440;2023-03-16T06:09:30;4.80;99.90
52675;DHT22;38569;52.722;6.440;2023-03-16T06:11:56;4.80;99.90
52675;DHT22;38569;52.722;6.440;2023-03-16T06:14:21;4.80;99.90
52675;DHT22;38569;52.722;6.440;2023-03-16T06:16:48;4.80;99.90
52675;DHT22;38569;52.722;6.440;2023-03-16T06:19:14;4.80;99.90
52675;DHT22;38569;52.722;6.440;2023-03-16T06:21:39;4.90;99.90
52675;DHT22;38569;52.722;6.440;2023-03-16T06:24:06;4.90;99.90
52675;DHT22;38569;52.722;6.440;2023-03-16T06:26:34;4.90;99.90
52675;DHT22;38569;52.722;6.440;2023-03-16T06:29:00;4.90;99.90
52675;DHT22;38569;52.722;6.440;2023-03-16T06:31:25;4.90;99.90
52675;DHT22;38569;52.722;6.440;2023-03-16T06:33:51;5.00;99.90
52675;DHT22;38569;52.722;6.440;2023-03-16T06:36:17;5.00;99.90
52675;DHT22;38569;52.722;6.440;2023-03-16T06:38:43;5.10;99.90
52675;DHT22;38569;52.722;6.440;2023-03-16T06:41:09;5.20;99.90
52675;DHT22;38569;52.722;6.440;2023-03-16T06:43:35;5.10;99.90
52675;DHT22;38569;52.722;6.440;2023-03-16T06:46:01;5.20;99.90
52675;DHT22;38569;52.722;6.440;2023-03-16T06:48:28;5.30;99.90
52675;DHT22;38569;52.722;6.440;2023-03-16T06:50:54;5.30;99.90
52675;DHT22;38569;52.722;6.440;2023-03-16T06:53:19;5.30;99.90
52675;DHT22;38569;52.722;6.440;2023-03-16T06:55:47;5.40;99.90
52675;DHT22;38569;52.722;6.440;2023-03-16T06:58:12;5.40;99.90
52675;DHT22;38569;52.722;6.440;2023-03-16T07:00:38;5.40;99.90
52675;DHT22;38569;52.722;6.440;2023-03-16T07:03:04;5.50;99.90
52675;DHT22;38569;52.722;6.440;2023-03-16T07:05:30;5.50;99.90
52675;DHT22;38569;52.722;6.440;2023-03-16T07:07:56;5.40;99.90
52675;DHT22;38569;52.722;6.440;2023-03-16T07:10:22;5.50;99.90
52675;DHT22;38569;52.722;6.440;2023-03-16T07:12:48;5.60;99.90
52675;DHT22;38569;52.722;6.440;2023-03-16T07:15:14;5.60;99.90
52675;DHT22;38569;52.722;6.440;2023-03-16T07:17:40;5.60;99.90
52675;DHT22;38569;52.722;6.440;2023-03-16T07:20:08;5.60;99.90
52675;DHT22;38569;52.722;6.440;2023-03-16T07:22:36;5.60;99.90
52675;DHT22;38569;52.722;6.440;2023-03-16T07:25:03;5.70;99.90
52675;DHT22;38569;52.722;6.440;2023-03-16T07:27:28;5.60;99.90
52675;DHT22;38569;52.722;6.440;2023-03-16T07:29:54;5.70;99.90
52675;DHT22;38569;52.722;6.440;2023-03-16T07:32:21;5.70;99.90
52675;DHT22;38569;52.722;6.440;2023-03-16T07:34:47;5.70;99.90
52675;DHT22;38569;52.722;6.440;2023-03-16T07:37:13;5.80;99.90
52675;DHT22;38569;52.722;6.440;2023-03-16T07:39:38;5.80;99.90
52675;DHT22;38569;52.722;6.440;2023-03-16T07:42:04;5.80;99.90
52675;DHT22;38569;52.722;6.440;2023-03-16T07:44:30;5.90;99.90
52675;DHT22;38569;52.722;6.440;2023-03-16T07:46:56;6.00;99.90
52675;DHT22;38569;52.722;6.440;2023-03-16T07:49:22;6.00;99.90
52675;DHT22;38569;52.722;6.440;2023-03-16T07:51:48;6.10;99.90
52675;DHT22;38569;52.722;6.440;2023-03-16T07:54:14;5.90;99.90
52675;DHT22;38569;52.722;6.440;2023-03-16T07:56:40;6.00;99.90
52675;DHT22;38569;52.722;6.440;2023-03-16T07:59:06;5.90;99.90
52675;DHT22;38569;52.722;6.440;2023-03-16T08:01:32;5.90;99.90
52675;DHT22;38569;52.722;6.440;2023-03-16T08:03:59;5.80;99.90
52675;DHT22;38569;52.722;6.440;2023-03-16T08:06:26;5.70;99.90
52675;DHT22;38569;52.722;6.440;2023-03-16T08:08:52;5.60;99.90
52675;DHT22;38569;52.722;6.440;2023-03-16T08:11:18;5.60;99.90
52675;DHT22;38569;52.722;6.440;2023-03-16T08:13:50;5.50;99.90
52675;DHT22;38569;52.722;6.440;2023-03-16T08:16:22;5.50;99.90
52675;DHT22;38569;52.722;6.440;2023-03-16T08:18:48;5.40;99.90
52675;DHT22;38569;52.722;6.440;2023-03-16T08:21:18;5.40;99.90
52675;DHT22;38569;52.722;6.440;2023-03-16T08:23:44;5.40;99.90
52675;DHT22;38569;52.722;6.440;2023-03-16T08:26:20;5.40;99.90
52675;DHT22;38569;52.722;6.440;2023-03-16T08:28:48;5.40;99.90
52675;DHT22;38569;52.722;6.440;2023-03-16T08:31:17;5.40;99.90
52675;DHT22;38569;52.722;6.440;2023-03-16T08:33:44;5.40;99.90
52675;DHT22;38569;52.722;6.440;2023-03-16T08:36:13;5.40;99.90
52675;DHT22;38569;52.722;6.440;2023-03-16T08:38:40;5.30;99.90
52675;DHT22;38569;52.722;6.440;2023-03-16T08:41:07;5.20;99.90
52675;DHT22;38569;52.722;6.440;2023-03-16T08:43:34;5.20;99.90
52675;DHT22;38569;52.722;6.440;2023-03-16T08:46:02;5.20;99.90
52675;DHT22;38569;52.722;6.440;2023-03-16T08:48:31;5.30;99.90
52675;DHT22;38569;52.722;6.440;2023-03-16T08:51:03;5.30;99.90
52675;DHT22;38569;52.722;6.440;2023-03-16T08:53:31;5.30;99.90
52675;DHT22;38569;52.722;6.440;2023-03-16T08:56:09;5.30;99.90
52675;DHT22;38569;52.722;6.440;2023-03-16T08:58:37;5.30;99.90
52675;DHT22;38569;52.722;6.440;2023-03-16T09:01:05;5.30;99.90
52675;DHT22;38569;52.722;6.440;2023-03-16T09:03:34;5.40;99.90
52675;DHT22;38569;52.722;6.440;2023-03-16T09:06:01;5.30;99.90
52675;DHT22;38569;52.722;6.440;2023-03-16T09:08:28;5.30;99.90
52675;DHT22;38569;52.722;6.440;2023-03-16T09:11:01;5.30;99.90
52675;DHT22;38569;52.722;6.440;2023-03-16T09:13:29;5.30;99.90
52675;DHT22;38569;52.722;6.440;2023-03-16T09:15:55;5.30;99.90
52675;DHT22;38569;52.722;6.440;2023-03-16T09:18:22;5.30;99.90
52675;DHT22;38569;52.722;6.440;2023-03-16T09:20:48;5.30;99.90
52675;DHT22;38569;52.722;6.440;2023-03-16T09:23:14;5.30;99.90
52675;DHT22;38569;52.722;6.440;2023-03-16T09:25:40;5.40;99.90
52675;DHT22;38569;52.722;6.440;2023-03-16T09:28:06;5.40;99.90
52675;DHT22;38569;52.722;6.440;2023-03-16T09:30:32;5.40;99.90
52675;DHT22;38569;52.722;6.440;2023-03-16T09:32:58;5.40;99.90
52675;DHT22;38569;52.722;6.440;2023-03-16T09:35:24;5.40;99.90
52675;DHT22;38569;52.722;6.440;2023-03-16T09:37:51;5.50;99.90
52675;DHT22;38569;52.722;6.440;2023-03-16T09:40:26;5.50;99.90
52675;DHT22;38569;52.722;6.440;2023-03-16T09:46:11;5.60;99.90
52675;DHT22;38569;52.722;6.440;2023-03-16T09:48:39;5.60;99.90
52675;DHT22;38569;52.722;6.440;2023-03-16T09:51:19;5.60;99.90
52675;DHT22;38569;52.722;6.440;2023-03-16T09:53:49;5.60;99.90
52675;DHT22;38569;52.722;6.440;2023-03-16T09:56:26;5.60;99.90
52675;DHT22;38569;52.722;6.440;2023-03-16T09:58:54;5.70;99.90
52675;DHT22;38569;52.722;6.440;2023-03-16T10:12:42;5.60;99.90
52675;DHT22;38569;52.722;6.440;2023-03-16T10:15:13;5.70;99.90
52675;DHT22;38569;52.722;6.440;2023-03-16T10:20:17;5.80;99.90
52675;DHT22;38569;52.722;6.440;2023-03-16T10:22:46;5.90;99.90
52675;DHT22;38569;52.722;6.440;2023-03-16T10:25:24;6.00;99.90
52675;DHT22;38569;52.722;6.440;2023-03-16T10:27:52;6.00;99.90
52675;DHT22;38569;52.722;6.440;2023-03-16T10:32:51;6.20;99.90
52675;DHT22;38569;52.722;6.440;2023-03-16T10:38:36;6.30;99.90
52675;DHT22;38569;52.722;6.440;2023-03-16T10:41:21;6.40;99.90
52675;DHT22;38569;52.722;6.440;2023-03-16T10:43:51;6.50;99.90
52675;DHT22;38569;52.722;6.440;2023-03-16T10:46:18;6.60;99.90
52675;DHT22;38569;52.722;6.440;2023-03-16T10:49:19;6.60;99.90
52675;DHT22;38569;52.722;6.440;2023-03-16T10:51:45;6.60;99.90
52675;DHT22;38569;52.722;6.440;2023-03-16T10:54:20;6.50;99.90
52675;DHT22;38569;52.722;6.440;2023-03-16T10:56:49;6.60;99.90
52675;DHT22;38569;52.722;6.440;2023-03-16T11:01:50;6.70;99.90
52675;DHT22;38569;52.722;6.440;2023-03-16T11:04:18;6.70;99.90
52675;DHT22;38569;52.722;6.440;2023-03-16T11:06:54;6.80;99.90
52675;DHT22;38569;52.722;6.440;2023-03-16T11:09:30;6.90;99.90
52675;DHT22;38569;52.722;6.440;2023-03-16T11:11:58;7.10;99.90
52675;DHT22;38569;52.722;6.440;2023-03-16T11:14:27;7.10;99.90
52675;DHT22;38569;52.722;6.440;2023-03-16T11:17:33;7.20;99.90
52675;DHT22;38569;52.722;6.440;2023-03-16T11:19:55;7.40;99.90
52675;DHT22;38569;52.722;6.440;2023-03-16T11:22:26;7.40;99.90
52675;DHT22;38569;52.722;6.440;2023-03-16T11:25:03;7.50;99.90
52675;DHT22;38569;52.722;6.440;2023-03-16T11:28:23;7.60;99.90
52675;DHT22;38569;52.722;6.440;2023-03-16T11:33:26;7.70;99.90
52675;DHT22;38569;52.722;6.440;2023-03-16T11:42:21;8.00;99.90
52675;DHT22;38569;52.722;6.440;2023-03-16T11:45:20;8.10;99.90
52675;DHT22;38569;52.722;6.440;2023-03-16T11:48:05;8.20;99.90
52675;DHT22;38569;52.722;6.440;2023-03-16T11:50:57;8.40;99.90
52675;DHT22;38569;52.722;6.440;2023-03-16T12:07:38;9.40;99.90
52675;DHT22;38569;52.722;6.440;2023-03-16T12:10:28;9.70;99.90
52675;DHT22;38569;52.722;6.440;2023-03-16T12:13:07;9.90;99.90
52675;DHT22;38569;52.722;6.440;2023-03-16T12:18:20;9.50;99.90
52675;DHT22;38569;52.722;6.440;2023-03-16T12:21:00;9.40;99.90
52675;DHT22;38569;52.722;6.440;2023-03-16T12:23:38;9.30;99.90
52675;DHT22;38569;52.722;6.440;2023-03-16T12:26:06;9.30;99.90
52675;DHT22;38569;52.722;6.440;2023-03-16T12:28:33;9.40;99.90
52675;DHT22;38569;52.722;6.440;2023-03-16T12:31:36;9.40;99.90
52675;DHT22;38569;52.722;6.440;2023-03-16T12:37:12;9.50;99.90
52675;DHT22;38569;52.722;6.440;2023-03-16T12:45:01;9.60;99.90
52675;DHT22;38569;52.722;6.440;2023-03-16T12:47:32;9.70;99.90
52675;DHT22;38569;52.722;6.440;2023-03-16T12:50:13;9.70;99.90
52675;DHT22;38569;52.722;6.440;2023-03-16T12:52:58;9.80;99.90
52675;DHT22;38569;52.722;6.440;2023-03-16T12:58:05;9.80;99.90
52675;DHT22;38569;52.722;6.440;2023-03-16T13:00:37;9.90;99.90
52675;DHT22;38569;52.722;6.440;2023-03-16T13:03:04;9.90;99.90
52675;DHT22;38569;52.722;6.440;2023-03-16T13:05:35;9.90;99.90
52675;DHT22;38569;52.722;6.440;2023-03-16T13:08:13;10.00;99.90
52675;DHT22;38569;52.722;6.440;2023-03-16T13:10:41;10.10;99.90
52675;DHT22;38569;52.722;6.440;2023-03-16T13:13:13;10.30;99.90
52675;DHT22;38569;52.722;6.440;2023-03-16T13:15:40;10.50;99.90
52675;DHT22;38569;52.722;6.440;2023-03-16T13:18:26;10.60;99.90
52675;DHT22;38569;52.722;6.440;2023-03-16T13:21:00;10.70;99.90
52675;DHT22;38569;52.722;6.440;2023-03-16T13:23:57;10.90;99.90
52675;DHT22;38569;52.722;6.440;2023-03-16T13:26:37;11.00;99.90
52675;DHT22;38569;52.722;6.440;2023-03-16T13:31:44;11.40;99.90
52675;DHT22;38569;52.722;6.440;2023-03-16T13:34:31;11.50;99.90
52675;DHT22;38569;52.722;6.440;2023-03-16T13:36:58;11.60;99.90
52675;DHT22;38569;52.722;6.440;2023-03-16T13:39:28;11.70;98.80
52675;DHT22;38569;52.722;6.440;2023-03-16T13:44:29;11.70;97.40
52675;DHT22;38569;52.722;6.440;2023-03-16T13:46:56;11.70;98.20
52675;DHT22;38569;52.722;6.440;2023-03-16T13:49:22;11.80;97.30
52675;DHT22;38569;52.722;6.440;2023-03-16T13:51:48;11.80;97.50
52675;DHT22;38569;52.722;6.440;2023-03-16T13:54:24;11.90;96.70
52675;DHT22;38569;52.722;6.440;2023-03-16T13:57:03;11.90;96.20
52675;DHT22;38569;52.722;6.440;2023-03-16T13:59:31;11.90;95.40
52675;DHT22;38569;52.722;6.440;2023-03-16T14:01:59;11.90;95.80
52675;DHT22;38569;52.722;6.440;2023-03-16T14:04:31;11.80;95.60
52675;DHT22;38569;52.722;6.440;2023-03-16T14:06:58;11.70;95.80
52675;DHT22;38569;52.722;6.440;2023-03-16T14:09:30;11.70;96.30
52675;DHT22;38569;52.722;6.440;2023-03-16T14:11:57;11.70;96.20
52675;DHT22;38569;52.722;6.440;2023-03-16T14:14:35;11.70;95.10
52675;DHT22;38569;52.722;6.440;2023-03-16T14:17:09;11.70;95.70
52675;DHT22;38569;52.722;6.440;2023-03-16T14:19:48;11.80;95.70
52675;DHT22;38569;52.722;6.440;2023-03-16T14:24:43;12.10;95.20
52675;DHT22;38569;52.722;6.440;2023-03-16T14:29:43;12.10;93.80
52675;DHT22;38569;52.722;6.440;2023-03-16T14:32:23;12.20;94.30
52675;DHT22;38569;52.722;6.440;2023-03-16T14:34:58;12.40;93.20
52675;DHT22;38569;52.722;6.440;2023-03-16T14:37:33;12.60;93.50
52675;DHT22;38569;52.722;6.440;2023-03-16T14:40:06;12.60;92.90
52675;DHT22;38569;52.722;6.440;2023-03-16T14:42:33;12.70;93.10
52675;DHT22;38569;52.722;6.440;2023-03-16T14:45:01;12.80;92.90
52675;DHT22;38569;52.722;6.440;2023-03-16T14:47:30;13.00;92.50
52675;DHT22;38569;52.722;6.440;2023-03-16T14:50:02;13.00;91.00
52675;DHT22;38569;52.722;6.440;2023-03-16T14:52:31;12.90;91.10
52675;DHT22;38569;52.722;6.440;2023-03-16T14:54:59;12.90;90.60
52675;DHT22;38569;52.722;6.440;2023-03-16T14:57:25;12.90;90.30
52675;DHT22;38569;52.722;6.440;2023-03-16T14:59:52;12.80;90.10
52675;DHT22;38569;52.722;6.440;2023-03-16T15:02:26;12.90;89.60
52675;DHT22;38569;52.722;6.440;2023-03-16T15:04:53;12.80;89.20
52675;DHT22;38569;52.722;6.440;2023-03-16T15:07:26;12.70;89.10
52675;DHT22;38569;52.722;6.440;2023-03-16T15:09:54;12.60;87.30
52675;DHT22;38569;52.722;6.440;2023-03-16T15:12:21;12.50;87.20
52675;DHT22;38569;52.722;6.440;2023-03-16T15:14:49;12.40;88.40
52675;DHT22;38569;52.722;6.440;2023-03-16T15:17:33;12.40;89.20
52675;DHT22;38569;52.722;6.440;2023-03-16T15:19:59;12.40;88.40
52675;DHT22;38569;52.722;6.440;2023-03-16T15:22:32;12.30;89.60
52675;DHT22;38569;52.722;6.440;2023-03-16T15:25:10;12.30;87.60
52675;DHT22;38569;52.722;6.440;2023-03-16T15:27:42;12.10;88.20
52675;DHT22;38569;52.722;6.440;2023-03-16T15:30:20;12.10;89.40
52675;DHT22;38569;52.722;6.440;2023-03-16T15:32:47;12.00;88.00
52675;DHT22;38569;52.722;6.440;2023-03-16T15:35:13;12.00;89.70
52675;DHT22;38569;52.722;6.440;2023-03-16T15:37:38;12.00;89.90
52675;DHT22;38569;52.722;6.440;2023-03-16T15:40:23;12.00;90.00
52675;DHT22;38569;52.722;6.440;2023-03-16T15:42:50;12.10;89.80
52675;DHT22;38569;52.722;6.440;2023-03-16T15:45:20;12.20;90.00
52675;DHT22;38569;52.722;6.440;2023-03-16T15:47:47;12.20;89.00
52675;DHT22;38569;52.722;6.440;2023-03-16T15:50:14;12.10;88.50
52675;DHT22;38569;52.722;6.440;2023-03-16T15:52:44;12.10;87.30
52675;DHT22;38569;52.722;6.440;2023-03-16T15:55:18;12.10;88.40
52675;DHT22;38569;52.722;6.440;2023-03-16T15:57:45;12.10;87.70
52675;DHT22;38569;52.722;6.440;2023-03-16T16:00:36;12.00;88.70
52675;DHT22;38569;52.722;6.440;2023-03-16T16:03:04;12.00;86.80
52675;DHT22;38569;52.722;6.440;2023-03-16T16:05:30;12.00;88.40
52675;DHT22;38569;52.722;6.440;2023-03-16T16:07:56;12.00;88.20
52675;DHT22;38569;52.722;6.440;2023-03-16T16:10:22;12.00;88.20
52675;DHT22;38569;52.722;6.440;2023-03-16T16:12:50;12.00;88.30
52675;DHT22;38569;52.722;6.440;2023-03-16T16:17:50;12.00;87.60
52675;DHT22;38569;52.722;6.440;2023-03-16T16:20:27;12.00;87.90
52675;DHT22;38569;52.722;6.440;2023-03-16T16:22:54;11.90;88.50
52675;DHT22;38569;52.722;6.440;2023-03-16T16:25:26;11.90;89.00
52675;DHT22;38569;52.722;6.440;2023-03-16T16:27:53;11.90;88.60
52675;DHT22;38569;52.722;6.440;2023-03-16T16:30:27;11.80;88.90
52675;DHT22;38569;52.722;6.440;2023-03-16T16:32:54;11.80;88.90
52675;DHT22;38569;52.722;6.440;2023-03-16T16:35:23;11.70;89.20
52675;DHT22;38569;52.722;6.440;2023-03-16T16:37:49;11.70;89.50
52675;DHT22;38569;52.722;6.440;2023-03-16T16:40:32;11.60;89.90
52675;DHT22;38569;52.722;6.440;2023-03-16T16:43:04;11.50;89.90
52675;DHT22;38569;52.722;6.440;2023-03-16T16:45:30;11.40;90.00
52675;DHT22;38569;52.722;6.440;2023-03-16T16:47:56;11.40;89.90
52675;DHT22;38569;52.722;6.440;2023-03-16T16:50:25;11.30;90.10
52675;DHT22;38569;52.722;6.440;2023-03-16T16:52:52;11.20;90.20
52675;DHT22;38569;52.722;6.440;2023-03-16T16:55:20;11.10;90.10
52675;DHT22;38569;52.722;6.440;2023-03-16T16:57:47;11.10;90.30
52675;DHT22;38569;52.722;6.440;2023-03-16T17:00:24;11.00;90.50
52675;DHT22;38569;52.722;6.440;2023-03-16T17:02:52;11.00;90.40
52675;DHT22;38569;52.722;6.440;2023-03-16T17:05:20;10.90;90.70
52675;DHT22;38569;52.722;6.440;2023-03-16T17:07:48;10.80;91.30
52675;DHT22;38569;52.722;6.440;2023-03-16T17:10:20;10.70;91.70
52675;DHT22;38569;52.722;6.440;2023-03-16T17:12:51;10.70;92.20
52675;DHT22;38569;52.722;6.440;2023-03-16T17:15:26;10.60;92.40
52675;DHT22;38569;52.722;6.440;2023-03-16T17:18:13;10.60;92.90
52675;DHT22;38569;52.722;6.440;2023-03-16T17:20:39;10.50;93.20